Time;durP1;ratioP1;P1;durP2;ratioP2;P2;SDS_P1;SDS_P2;PMS_P1;PMS_P2;Temp;Humidity;BMP_temperature;BMP_pressure;BME280_temperature;BME280_humidity;BME280_pressure;Samples;Min_cycle;Max_cycle;Signal;HPM_P1;HPM_P2
2022/03/01 00:03:33;;;;;;;15.45;6.40;;;;;;;1.23;59.98;101111.97;12180167;19;19999;-82
2022/03/01 00:07:42;;;;;;;13.82;7.85;;;;;;;1.14;60.18;101108.31;12202215;19;20028;-82
2022/03/01 00:11:47;;;;;;;14.63;6.73;;;;;;;1.05;60.70;101116.56;12205187;19;20372;-82
2022/03/01 00:16:59;;;;;;;18.20;7.15;;;;;;;0.96;61.38;101125.66;12196925;19;20006;-84
2022/03/01 00:21:15;;;;;;;14.43;7.13;;;;;;;0.85;61.41;101114.00;11974622;19;2004387;-82
2022/03/01 00:25:19;;;;;;;15.95;7.18;;;;;;;0.80;61.87;101120.88;12197506;19;20024;-84
2022/03/01 00:29:35;;;;;;;15.10;6.70;;;;;;;0.75;62.19;101132.22;12187366;19;20010;-83
2022/03/01 00:33:37;;;;;;;13.93;7.07;;;;;;;0.70;62.66;101134.53;12173602;19;20002;-82
2022/03/01 00:37:39;;;;;;;14.10;6.95;;;;;;;0.70;62.42;101139.97;12203502;19;20495;-82
2022/03/01 00:41:42;;;;;;;17.50;7.25;;;;;;;0.66;63.05;101144.00;12199742;19;20010;-82
2022/03/01 00:45:44;;;;;;;14.80;7.15;;;;;;;0.62;63.01;101145.28;12182987;19;20022;-83
2022/03/01 00:49:46;;;;;;;12.00;6.88;;;;;;;0.58;62.92;101150.16;12194375;19;20018;-83
2022/03/01 00:53:48;;;;;;;15.88;6.53;;;;;;;0.54;63.14;101148.78;12202728;19;20069;-81
2022/03/01 00:57:49;;;;;;;12.00;6.57;;;;;;;0.48;62.87;101145.78;12180249;19;20011;-80
2022/03/01 01:01:51;;;;;;;12.90;6.85;;;;;;;0.42;63.07;101147.28;12202339;19;20020;-81
2022/03/01 01:05:53;;;;;;;12.73;6.65;;;;;;;0.43;62.83;101149.81;12205449;19;20062;-82
2022/03/01 01:09:55;;;;;;;15.80;6.80;;;;;;;0.41;62.66;101151.81;12182752;19;20472;-80
2022/03/01 01:13:56;;;;;;;13.95;6.47;;;;;;;0.39;62.47;101144.88;12198636;19;20046;-81
2022/03/01 01:17:58;;;;;;;14.32;6.35;;;;;;;0.39;62.51;101145.72;12201445;19;20022;-80
2022/03/01 01:26:21;;;;;;;16.02;6.50;;;;;;;0.37;62.48;101146.88;12201353;19;21318;-81
2022/03/01 01:30:28;;;;;;;17.45;7.03;;;;;;;0.34;62.21;101149.88;12182872;19;20074;-81
2022/03/01 01:34:30;;;;;;;12.35;6.72;;;;;;;0.28;62.53;101151.34;12195150;19;20480;-83
2022/03/01 01:38:32;;;;;;;16.33;6.88;;;;;;;0.27;62.68;101160.50;12196021;19;20778;-80
2022/03/01 01:42:33;;;;;;;14.43;6.30;;;;;;;0.25;62.31;101157.06;12182558;19;20090;-80
2022/03/01 01:46:35;;;;;;;13.40;6.53;;;;;;;0.21;62.66;101161.09;12201845;19;20118;-81
2022/03/01 01:50:37;;;;;;;15.52;7.25;;;;;;;0.15;63.04;101167.06;12207232;19;20475;-82
2022/03/01 01:54:40;;;;;;;15.25;6.35;;;;;;;0.12;63.13;101160.13;12185939;19;20010;-81
2022/03/01 01:58:43;;;;;;;16.33;7.22;;;;;;;0.09;63.18;101165.84;12204227;19;20073;-81
2022/03/01 02:02:45;;;;;;;17.10;7.30;;;;;;;0.03;63.49;101157.44;12210992;19;20010;-83
2022/03/01 02:06:54;;;;;;;16.67;7.95;;;;;;;-0.03;63.55;101158.88;12179008;19;20006;-80
2022/03/01 02:10:56;;;;;;;17.15;7.53;;;;;;;-0.08;63.20;101153.91;12211721;19;20020;-81
2022/03/01 02:15:00;;;;;;;16.45;7.03;;;;;;;-0.14;63.24;101149.09;12209947;19;20337;-81
2022/03/01 02:19:04;;;;;;;16.50;7.90;;;;;;;-0.16;63.48;101155.66;12186489;19;20081;-81
2022/03/01 02:23:06;;;;;;;13.82;6.82;;;;;;;-0.20;63.54;101155.09;12215887;19;20027;-81
2022/03/01 02:27:08;;;;;;;14.80;6.50;;;;;;;-0.26;64.35;101161.94;12223342;19;20014;-83
2022/03/01 02:31:10;;;;;;;16.50;6.70;;;;;;;-0.32;64.02;101156.28;12204150;19;20104;-81
2022/03/01 02:35:12;;;;;;;14.68;6.88;;;;;;;-0.42;64.58;101148.16;12203162;19;20003;-82
2022/03/01 02:39:16;;;;;;;15.45;7.07;;;;;;;-0.52;64.53;101137.34;12183495;19;20006;-82
2022/03/01 02:43:18;;;;;;;17.20;8.05;;;;;;;-0.56;64.72;101135.94;12209366;19;20010;-84
2022/03/01 02:47:20;;;;;;;19.67;7.95;;;;;;;-0.58;65.02;101134.38;12206111;19;20086;-84
2022/03/01 02:51:22;;;;;;;20.77;7.95;;;;;;;-0.57;65.52;101130.66;12184773;19;20070;-82
2022/03/01 02:55:23;;;;;;;14.93;7.25;;;;;;;-0.56;65.04;101121.56;12202710;19;20057;-80
2022/03/01 02:59:25;;;;;;;16.58;7.55;;;;;;;-0.58;65.31;101121.69;12205191;19;20046;-81
2022/03/01 03:03:27;;;;;;;12.77;6.73;;;;;;;-0.55;64.48;101125.97;12175253;19;20003;-82
2022/03/01 03:07:29;;;;;;;21.20;7.75;;;;;;;-0.56;64.61;101130.53;12203740;19;20007;-81
2022/03/01 03:11:30;;;;;;;16.52;7.80;;;;;;;-0.58;64.60;101134.38;12204466;19;20089;-80
2022/03/01 03:15:32;;;;;;;17.83;7.85;;;;;;;-0.63;65.51;101129.38;12187651;19;20082;-79
2022/03/01 03:19:34;;;;;;;15.63;6.82;;;;;;;-0.67;65.32;101117.13;12204986;19;20796;-81
2022/03/01 03:23:35;;;;;;;17.30;7.47;;;;;;;-0.72;65.27;101131.09;12202616;19;20077;-81
2022/03/01 03:27:38;;;;;;;16.25;6.90;;;;;;;-0.77;65.90;101127.16;12178458;19;20101;-81
2022/03/01 03:31:41;;;;;;;17.83;7.30;;;;;;;-0.77;65.65;101124.44;12202343;19;20113;-81
2022/03/01 03:35:43;;;;;;;15.38;7.28;;;;;;;-0.83;65.73;101122.28;12199411;19;20576;-81
2022/03/01 03:39:45;;;;;;;18.50;7.90;;;;;;;-0.84;66.33;101123.28;12184802;19;20011;-81
2022/03/01 03:43:46;;;;;;;16.58;7.63;;;;;;;-0.86;65.74;101115.31;12192934;19;20075;-81
2022/03/01 03:47:48;;;;;;;20.00;7.93;;;;;;;-0.96;66.59;101112.59;12202853;19;20031;-82
2022/03/01 03:51:50;;;;;;;15.63;7.38;;;;;;;-0.99;66.65;101112.03;12177437;19;20010;-79
2022/03/01 03:55:52;;;;;;;18.05;7.53;;;;;;;-1.03;66.04;101116.88;12194968;19;20073;-80
2022/03/01 03:59:53;;;;;;;18.48;8.15;;;;;;;-1.07;65.95;101110.06;12199667;19;20007;-80
2022/03/01 04:03:58;;;;;;;22.35;7.97;;;;;;;-1.05;65.39;101120.72;12183042;19;20067;-82
2022/03/01 04:07:59;;;;;;;17.38;8.18;;;;;;;-1.07;65.56;101115.47;12194853;19;20364;-81
2022/03/01 04:12:02;;;;;;;19.58;8.32;;;;;;;-1.13;65.88;101116.06;12202922;19;20021;-81
2022/03/01 04:16:05;;;;;;;;;;;;;;;-1.23;67.17;101110.63;12181747;19;20015;-81
2022/03/01 04:20:08;;;;;;;17.80;6.57;;;;;;;-1.33;67.45;101108.91;12197139;19;19954;-81
2022/03/01 04:24:10;;;;;;;;;;;;;;;-1.42;68.18;101106.06;12201729;19;20349;-82
2022/03/01 04:28:13;;;;;;;19.43;8.30;;;;;;;-1.43;67.30;101104.34;12174934;19;19906;-80
2022/03/01 04:32:17;;;;;;;19.33;7.88;;;;;;;-1.47;67.32;101097.50;12197190;19;20027;-81
2022/03/01 04:36:18;;;;;;;19.30;8.47;;;;;;;-1.51;67.27;101092.53;12177125;19;20028;-81
2022/03/01 04:40:21;;;;;;;14.60;6.45;;;;;;;-1.54;67.40;101103.63;12200470;19;20030;-80
2022/03/01 04:44:23;;;;;;;13.95;7.45;;;;;;;-1.53;66.81;101089.94;12200115;19;20480;-81
2022/03/01 04:48:25;;;;;;;18.30;7.93;;;;;;;-1.53;67.57;101095.34;12180637;19;20042;-79
2022/03/01 04:52:27;;;;;;;15.63;7.75;;;;;;;-1.61;67.15;101085.28;12201908;19;20074;-82
2022/03/01 04:56:30;;;;;;;16.48;6.68;;;;;;;-1.69;67.27;101082.41;12195482;19;20680;-79
2022/03/01 05:00:32;;;;;;;16.48;7.63;;;;;;;-1.72;67.99;101089.94;12179277;19;20087;-80
2022/03/01 05:04:34;;;;;;;18.80;7.00;;;;;;;-1.72;67.99;101092.63;12194158;19;20007;-80
2022/03/01 05:08:39;;;;;;;19.73;8.10;;;;;;;-1.74;67.39;101083.81;12204232;19;20006;-80
2022/03/01 05:12:46;;;;;;;16.20;7.25;;;;;;;-1.76;67.86;101086.63;12181022;19;20480;-80
2022/03/01 05:16:48;;;;;;;18.23;7.55;;;;;;;-1.84;68.71;101087.34;12199622;19;20014;-81
2022/03/01 05:20:51;;;;;;;19.00;7.32;;;;;;;-1.84;68.46;101095.44;12216666;19;20015;-83
2022/03/01 05:24:53;;;;;;;17.50;7.45;;;;;;;-1.81;68.25;101101.53;12196599;19;20021;-81
2022/03/01 05:28:55;;;;;;;15.10;7.40;;;;;;;-1.83;68.74;101107.94;12212127;19;20452;-81
2022/03/01 05:32:59;;;;;;;15.82;7.82;;;;;;;-1.86;69.21;101119.03;12203000;19;20373;-82
2022/03/01 05:37:01;;;;;;;15.85;7.57;;;;;;;-1.87;69.16;101117.34;12194273;19;20023;-81
2022/03/01 05:41:04;;;;;;;16.67;8.43;;;;;;;-1.87;69.19;101113.78;12203479;19;20036;-80
2022/03/01 05:45:07;;;;;;;16.58;7.15;;;;;;;-1.89;69.61;101119.31;12211160;19;20006;-82
2022/03/01 05:49:09;;;;;;;17.95;7.78;;;;;;;-1.91;69.88;101126.69;12182494;19;20496;-81
2022/03/01 05:53:11;;;;;;;14.82;7.20;;;;;;;-1.95;69.45;101119.88;12202420;19;20495;-79
2022/03/01 05:57:13;;;;;;;15.35;7.18;;;;;;;-1.96;69.89;101134.38;12180681;19;20050;-80
2022/03/01 06:01:17;;;;;;;19.45;8.48;;;;;;;-1.98;70.02;101130.09;12195194;19;20006;-80
2022/03/01 06:05:31;;;;;;;18.48;7.80;;;;;;;-1.98;69.76;101140.91;12212416;19;20003;-81
2022/03/01 06:09:32;;;;;;;23.80;8.63;;;;;;;-1.99;70.41;101139.16;12186336;19;20088;-81
2022/03/01 06:13:34;;;;;;;18.55;8.35;;;;;;;-1.98;69.90;101141.75;12215236;19;20006;-81
2022/03/01 06:22:36;;;;;;;14.98;7.80;;;;;;;-1.94;69.70;101143.16;12162750;19;20099;-83
2022/03/01 06:26:38;;;;;;;18.27;7.25;;;;;;;-1.91;69.83;101142.06;12204794;19;20007;-80
2022/03/01 06:30:41;;;;;;;15.45;8.30;;;;;;;-1.88;69.65;101136.38;12174720;19;20027;-80
2022/03/01 06:34:43;;;;;;;18.83;8.60;;;;;;;-1.83;69.69;101134.97;12214688;19;20038;-80
2022/03/01 06:39:06;;;;;;;;;;;;;;;-1.73;70.67;101131.44;12215712;19;20356;-80
2022/03/01 06:43:10;;;;;;;17.35;7.15;;;;;;;-1.67;70.13;101134.44;12184838;19;20008;-81
2022/03/01 06:47:14;;;;;;;17.63;8.02;;;;;;;-1.57;69.84;101139.03;12206967;19;20007;-80
2022/03/01 06:51:26;;;;;;;16.98;7.57;;;;;;;-1.51;69.38;101135.78;12187172;19;20800;-81
2022/03/01 06:55:32;;;;;;;16.17;8.13;;;;;;;-1.41;69.15;101140.19;12215178;19;20386;-80
2022/03/01 06:59:35;;;;;;;16.77;7.05;;;;;;;-1.32;69.03;101133.09;12213337;19;20292;-82
2022/03/01 07:03:39;;;;;;;17.20;7.65;;;;;;;-1.23;68.59;101137.66;12177733;19;20014;-80
2022/03/01 07:07:42;;;;;;;18.75;8.27;;;;;;;-1.13;68.67;101142.22;12210308;19;20492;-80
2022/03/01 07:11:44;;;;;;;17.58;8.07;;;;;;;-1.07;68.10;101142.53;12212646;19;20010;-81
2022/03/01 07:15:45;;;;;;;19.33;7.90;;;;;;;-0.93;67.85;101147.50;12191543;19;20014;-82
2022/03/01 07:19:48;;;;;;;19.33;7.80;;;;;;;-0.84;67.90;101142.22;12206596;19;20015;-80
2022/03/01 07:23:50;;;;;;;18.00;8.00;;;;;;;-0.73;67.13;101151.06;12203323;19;20017;-80
2022/03/01 07:27:53;;;;;;;16.67;7.75;;;;;;;-0.62;66.69;101152.75;12184077;19;20062;-82
2022/03/01 07:31:56;;;;;;;15.52;8.50;;;;;;;-0.51;66.52;101155.28;12211528;19;20041;-81
2022/03/01 07:36:00;;;;;;;18.77;8.55;;;;;;;-0.40;65.42;101150.72;12199968;19;20011;-81
2022/03/01 07:40:02;;;;;;;16.80;7.78;;;;;;;-0.24;64.38;101167.22;12182892;19;20006;-82
2022/03/01 07:44:04;;;;;;;16.85;7.50;;;;;;;-0.09;63.51;101157.63;12205064;19;20038;-81
2022/03/01 07:48:06;;;;;;;16.70;8.25;;;;;;;0.03;62.96;101158.31;12213298;19;20030;-82
2022/03/01 07:52:08;;;;;;;15.07;8.33;;;;;;;0.19;62.40;101160.38;12197117;19;20014;-84
2022/03/01 07:56:11;;;;;;;19.17;8.27;;;;;;;0.36;62.10;101156.03;12214225;19;20359;-82
2022/03/01 08:00:19;;;;;;;16.42;7.22;;;;;;;0.55;61.40;101160.47;12191807;19;21625;-81
2022/03/01 08:05:00;;;;;;;19.38;8.43;;;;;;;0.70;60.19;101164.38;12191105;19;20011;-80
2022/03/01 08:09:27;;;;;;;17.67;7.95;;;;;;;0.88;59.16;101161.69;12185544;19;20362;-82
2022/03/01 08:13:32;;;;;;;20.85;9.75;;;;;;;1.06;58.76;101165.25;12212837;19;20006;-82
2022/03/01 08:17:34;;;;;;;17.08;8.35;;;;;;;1.32;58.21;101173.47;12204414;19;20023;-82
2022/03/01 08:21:37;;;;;;;16.35;7.57;;;;;;;1.52;57.70;101174.16;12188198;19;20472;-82
2022/03/01 08:25:39;;;;;;;16.27;7.47;;;;;;;1.58;55.88;101167.25;12200959;19;20010;-82
2022/03/01 08:29:40;;;;;;;19.67;8.18;;;;;;;1.77;55.90;101174.34;12254420;19;20010;-81
2022/03/01 08:33:42;;;;;;;14.45;7.40;;;;;;;1.89;55.15;101170.34;12230330;19;20010;-81
2022/03/01 08:37:46;;;;;;;15.43;7.43;;;;;;;2.03;53.87;101177.06;12254544;19;20003;-82
2022/03/01 08:41:50;;;;;;;16.77;7.63;;;;;;;2.36;54.32;101177.25;12255139;19;20007;-82
2022/03/01 08:45:51;;;;;;;16.15;8.70;;;;;;;2.60;53.52;101171.88;12191059;19;20021;-81
2022/03/01 08:50:02;;;;;;;20.35;8.15;;;;;;;2.82;52.02;101172.28;12203740;19;20023;-81
2022/03/01 08:54:30;;;;;;;16.17;7.57;;;;;;;3.08;51.96;101178.47;12169046;19;20517;-80
2022/03/01 08:58:34;;;;;;;17.43;7.77;;;;;;;3.16;50.37;101181.22;12200641;19;20006;-82
2022/03/01 09:02:38;;;;;;;16.73;7.60;;;;;;;3.41;50.72;101173.91;12196820;19;20023;-81
2022/03/01 09:06:41;;;;;;;16.13;7.05;;;;;;;3.64;50.58;101184.16;12182919;19;20037;-80
2022/03/01 09:10:45;;;;;;;14.48;7.45;;;;;;;3.69;49.54;101172.72;12211931;19;20483;-81
2022/03/01 09:14:52;;;;;;;14.82;8.65;;;;;;;3.94;49.81;101179.84;12193889;19;20085;-80
2022/03/01 09:19:18;;;;;;;17.00;7.75;;;;;;;3.94;48.67;101177.13;12175986;19;20010;-79
2022/03/01 09:23:20;;;;;;;17.27;8.20;;;;;;;4.19;49.27;101172.44;12203534;19;20018;-79
2022/03/01 09:27:24;;;;;;;18.63;8.05;;;;;;;4.32;48.87;101164.59;12207531;19;20007;-80
2022/03/01 09:31:31;;;;;;;16.75;8.10;;;;;;;4.62;48.48;101161.22;12197717;19;20014;-80
2022/03/01 09:35:35;;;;;;;22.35;8.43;;;;;;;4.65;47.64;101145.34;12198739;19;20017;-79
2022/03/01 09:39:39;;;;;;;16.83;8.05;;;;;;;4.70;46.64;101142.91;12178877;19;20014;-82
2022/03/01 09:43:42;;;;;;;18.60;6.97;;;;;;;5.02;47.34;101133.66;12200841;19;19999;-80
2022/03/01 09:47:49;;;;;;;14.55;7.35;;;;;;;5.23;46.35;101137.59;12197297;19;20374;-82
2022/03/01 09:51:52;;;;;;;14.63;7.45;;;;;;;5.53;46.34;101124.88;12179302;19;20389;-84
2022/03/01 09:55:59;;;;;;;13.15;7.65;;;;;;;5.63;45.98;101127.38;12190286;19;20015;-82
2022/03/01 10:00:03;;;;;;;18.27;8.32;;;;;;;5.91;45.84;101131.19;12198945;19;20006;-81
2022/03/01 10:04:12;;;;;;;12.75;7.65;;;;;;;5.96;45.51;101116.13;12182248;19;20031;-81
2022/03/01 10:08:20;;;;;;;16.92;7.28;;;;;;;6.07;45.31;101130.22;12213617;19;20011;-83
2022/03/01 10:12:27;;;;;;;14.45;7.00;;;;;;;6.07;45.14;101130.22;12183315;19;20018;-81
2022/03/01 10:16:42;;;;;;;15.38;7.80;;;;;;;6.37;44.38;101117.34;12228389;19;20013;-80
2022/03/01 10:20:45;;;;;;;14.45;7.30;;;;;;;6.44;44.06;101127.53;12205480;19;20027;-81
2022/03/01 10:24:48;;;;;;;13.23;7.25;;;;;;;6.67;44.14;101124.69;12188436;19;20027;-80
2022/03/01 10:28:52;;;;;;;13.07;7.30;;;;;;;6.71;43.62;101121.34;12205245;19;20071;-82
2022/03/01 10:33:15;;;;;;;18.20;8.23;;;;;;;6.60;42.52;101127.31;12202988;19;20655;-81
2022/03/01 10:37:29;;;;;;;16.77;8.15;;;;;;;6.48;42.38;101126.13;12190496;19;20035;-82
2022/03/01 10:41:38;;;;;;;11.52;6.57;;;;;;;6.37;42.03;101127.47;12199643;19;20078;-81
2022/03/01 10:45:51;;;;;;;13.30;7.00;;;;;;;6.49;42.83;101125.09;12189456;19;20002;-81
2022/03/01 10:50:04;;;;;;;13.73;8.15;;;;;;;6.62;42.99;101128.81;12196507;19;20006;-80
2022/03/01 10:54:06;;;;;;;16.08;6.90;;;;;;;6.59;43.20;101134.69;12205578;19;20011;-80
2022/03/01 10:58:11;;;;;;;7.57;4.47;;;;;;;6.44;41.13;101135.75;12185916;19;20014;-82
2022/03/01 11:02:20;;;;;;;13.35;6.63;;;;;;;6.87;42.57;101141.34;12202027;19;20024;-80
2022/03/01 11:06:28;;;;;;;11.98;6.90;;;;;;;6.91;40.33;101127.06;12185141;19;20018;-81
2022/03/01 11:10:32;;;;;;;14.50;6.38;;;;;;;7.06;39.92;101118.78;12201341;19;20011;-79
2022/03/01 11:14:58;;;;;;;14.52;7.80;;;;;;;7.51;40.18;101119.44;12193784;19;20075;-80
2022/03/01 11:19:18;;;;;;;17.80;7.90;;;;;;;7.49;39.80;101116.03;12187000;19;20023;-82
2022/03/01 11:23:26;;;;;;;11.55;6.85;;;;;;;7.61;39.54;101106.22;12203790;19;20018;-82
2022/03/01 11:27:43;;;;;;;13.35;6.90;;;;;;;7.30;38.63;101101.94;12185438;19;20032;-83
2022/03/01 11:31:59;;;;;;;12.65;6.97;;;;;;;7.50;38.78;101104.03;12199296;19;20081;-82
2022/03/01 11:36:04;;;;;;;13.73;7.03;;;;;;;7.81;39.51;101094.56;12200535;19;20027;-81
2022/03/01 11:40:07;;;;;;;13.52;7.00;;;;;;;8.19;38.44;101078.53;12177643;19;20027;-81
2022/03/01 11:44:09;;;;;;;14.13;7.25;;;;;;;8.46;37.92;101086.94;12188438;19;20028;-82
2022/03/01 11:48:52;;;;;;;12.10;6.43;;;;;;;8.61;36.61;101091.22;12196854;19;20020;-81
2022/03/01 11:53:19;;;;;;;13.98;7.93;;;;;;;9.22;37.45;101073.81;12193710;19;20028;-81
2022/03/01 11:58:10;;;;;;;14.07;6.25;;;;;;;9.66;35.51;101066.81;12174023;19;20364;-81
2022/03/01 12:02:13;;;;;;;12.25;6.00;;;;;;;9.99;34.76;101064.03;12193083;19;20010;-82
2022/03/01 12:06:56;;;;;;;10.63;6.28;;;;;;;9.83;34.75;101056.22;12150882;19;20044;-81
2022/03/01 12:11:11;;;;;;;12.30;6.88;;;;;;;9.44;35.83;101038.69;12215151;19;20011;-81
2022/03/01 12:30:44;;;;;;;10.25;5.68;;;;;;;10.73;33.46;101001.19;12207482;19;20479;-81
2022/03/01 12:39:53;;;;;;;11.25;6.25;;;;;;;12.06;34.00;100988.97;12175372;19;20626;-82
2022/03/01 12:44:06;;;;;;;11.73;6.63;;;;;;;12.76;32.54;100982.94;12200203;19;20074;-83
2022/03/01 12:48:21;;;;;;;13.02;6.97;;;;;;;13.37;31.32;100967.06;12190850;19;20006;-80
2022/03/01 12:52:23;;;;;;;11.32;7.65;;;;;;;13.27;29.26;100961.28;12175106;19;20110;-80
2022/03/01 12:56:30;;;;;;;11.98;7.70;;;;;;;13.79;30.19;100962.22;12200439;19;20014;-80
2022/03/01 13:00:40;;;;;;;13.50;7.47;;;;;;;13.97;29.82;100946.53;12185638;19;20454;-81
2022/03/01 13:04:49;;;;;;;12.57;7.35;;;;;;;14.18;29.26;100934.75;12189217;19;20361;-80
2022/03/01 13:08:54;;;;;;;12.75;6.95;;;;;;;14.55;28.41;100939.97;12193373;19;20086;-80
2022/03/01 13:12:57;;;;;;;12.23;7.00;;;;;;;14.89;28.21;100938.06;12180429;19;20061;-80
2022/03/01 13:17:02;;;;;;;11.00;6.88;;;;;;;15.21;27.81;100929.16;12190518;19;20014;-80
2022/03/01 13:21:05;;;;;;;10.20;6.50;;;;;;;14.92;27.58;100934.78;12201031;19;20007;-80
2022/03/01 13:25:09;;;;;;;13.05;6.85;;;;;;;14.69;28.26;100923.84;12177165;19;19999;-80
2022/03/01 13:29:18;;;;;;;12.75;7.45;;;;;;;13.39;28.02;100921.44;12199727;19;20015;-80
2022/03/01 13:33:34;;;;;;;11.15;6.70;;;;;;;11.75;28.77;100921.75;12172453;19;20467;-81
2022/03/01 13:43:00;;;;;;;9.82;6.20;;;;;;;10.83;30.29;100902.31;12219769;19;20482;-83
2022/03/01 13:51:47;;;;;;;9.93;6.28;;;;;;;10.20;30.64;100897.63;12157581;19;20470;-84
2022/03/01 13:56:31;;;;;;;11.90;6.63;;;;;;;9.72;31.02;100899.97;12221878;19;20010;-85
2022/03/01 14:05:48;;;;;;;;;;;;;;;;;;;;;
2022/03/01 14:15:41;;;;;;;10.52;5.80;;;;;;;8.86;32.90;100895.50;12196252;19;20493;-81
2022/03/01 14:20:01;;;;;;;11.38;5.93;;;;;;;8.73;33.06;100893.59;12199021;19;20007;-82
2022/03/01 14:29:38;;;;;;;11.57;5.70;;;;;;;8.53;33.08;100890.00;12176172;19;20082;-83
2022/03/01 14:34:05;;;;;;;10.13;5.60;;;;;;;8.42;32.73;100886.81;12195421;19;20264;-82
2022/03/01 14:38:28;;;;;;;9.50;5.90;;;;;;;8.51;33.47;100881.13;12215309;19;20435;-82
2022/03/01 14:42:42;;;;;;;11.82;5.47;;;;;;;8.60;33.55;100880.72;12186445;19;20040;-82
2022/03/01 14:56:41;;;;;;;11.10;5.50;;;;;;;9.30;33.10;100867.28;12210603;19;21596;-82
2022/03/01 15:01:05;;;;;;;10.68;5.47;;;;;;;9.39;33.13;100865.16;12179286;19;20036;-81
2022/03/01 15:05:10;;;;;;;12.50;6.15;;;;;;;9.45;32.69;100856.03;12202891;19;20015;-81
2022/03/01 15:09:24;;;;;;;11.73;6.13;;;;;;;9.51;33.06;100860.66;12182150;19;20099;-81
2022/03/01 15:13:29;;;;;;;11.48;6.13;;;;;;;9.53;33.39;100857.72;12189633;19;20374;-81
2022/03/01 15:17:32;;;;;;;15.80;6.90;;;;;;;9.45;33.51;100845.03;12208861;19;20082;-81
2022/03/01 15:21:39;;;;;;;11.65;5.75;;;;;;;9.57;33.33;100843.28;12181644;19;20035;-81
2022/03/01 15:25:42;;;;;;;11.52;6.32;;;;;;;9.62;33.73;100844.56;12202519;19;20003;-80
2022/03/01 15:29:46;;;;;;;11.98;5.90;;;;;;;9.51;33.70;100854.31;12195918;19;20019;-82
2022/03/01 15:33:48;;;;;;;11.05;5.70;;;;;;;9.42;33.77;100853.72;12181503;19;20098;-81
2022/03/01 15:37:51;;;;;;;14.68;6.68;;;;;;;9.20;34.39;100844.91;12202656;19;20021;-81
2022/03/01 15:41:57;;;;;;;10.88;5.82;;;;;;;8.98;34.57;100841.56;12205816;19;20007;-81
2022/03/01 15:46:01;;;;;;;14.18;6.57;;;;;;;8.76;34.52;100851.13;12177641;19;20013;-80
2022/03/01 15:50:05;;;;;;;10.70;6.55;;;;;;;8.53;34.67;100838.63;12204431;19;20010;-80
2022/03/01 15:54:08;;;;;;;14.43;6.00;;;;;;;8.47;35.36;100846.88;12197094;19;20014;-81
2022/03/01 15:58:12;;;;;;;10.10;5.75;;;;;;;8.49;35.27;100840.13;12178244;19;20010;-81
2022/03/01 16:02:14;;;;;;;10.27;5.70;;;;;;;8.43;35.22;100840.97;12197809;19;20018;-82
2022/03/01 16:06:22;;;;;;;12.02;5.78;;;;;;;8.18;35.89;100849.78;12172855;19;20025;-81
2022/03/01 16:10:35;;;;;;;11.57;5.95;;;;;;;8.12;36.15;100845.16;12206120;19;20030;-81
2022/03/01 16:14:36;;;;;;;10.82;6.32;;;;;;;7.96;36.41;100848.25;12208876;19;20014;-81
2022/03/01 16:18:39;;;;;;;9.13;5.63;;;;;;;7.84;36.63;100849.91;12178494;19;20018;-80
2022/03/01 16:22:42;;;;;;;10.02;6.28;;;;;;;7.69;36.91;100842.69;12208291;19;20013;-80
2022/03/01 16:26:44;;;;;;;10.47;6.03;;;;;;;7.58;37.24;100845.19;12199806;19;20562;-80
2022/03/01 16:30:46;;;;;;;10.15;5.82;;;;;;;7.39;37.65;100852.28;12178259;19;20023;-81
2022/03/01 16:34:48;;;;;;;11.03;5.63;;;;;;;7.19;38.18;100847.53;12203072;19;20006;-79
2022/03/01 16:38:52;;;;;;;12.27;6.22;;;;;;;6.97;38.98;100833.06;12203967;19;20003;-80
2022/03/01 16:42:53;;;;;;;11.43;5.75;;;;;;;6.76;39.27;100833.16;12177855;19;20862;-80
2022/03/01 16:46:55;;;;;;;12.82;6.28;;;;;;;6.56;39.33;100839.31;12212086;19;20070;-81
2022/03/01 16:50:57;;;;;;;8.73;6.07;;;;;;;6.40;39.70;100842.34;12196467;19;20512;-79
2022/03/01 16:54:59;;;;;;;10.38;5.53;;;;;;;6.27;40.03;100848.53;12177731;19;20367;-80
2022/03/01 16:59:04;;;;;;;16.75;9.48;;;;;;;6.11;40.74;100863.31;12207156;19;20087;-80
2022/03/01 17:03:08;;;;;;;11.48;6.57;;;;;;;6.00;41.32;100863.00;12208028;19;20024;-81
2022/03/01 17:07:13;;;;;;;14.70;6.97;;;;;;;5.89;41.49;100861.59;12180938;19;20010;-80
2022/03/01 17:11:16;;;;;;;9.60;5.55;;;;;;;5.76;42.13;100856.81;12209820;19;20003;-82
2022/03/01 17:15:26;;;;;;;34.65;14.90;;;;;;;5.60;42.31;100851.59;12197058;19;20475;-80
2022/03/01 17:19:28;;;;;;;91.15;40.42;;;;;;;5.49;42.63;100853.75;12206969;19;20006;-81
2022/03/01 17:23:33;;;;;;;75.20;34.10;;;;;;;5.42;42.75;100850.09;12214526;19;20508;-80
2022/03/01 17:27:39;;;;;;;25.67;12.05;;;;;;;5.36;43.20;100845.41;12186495;19;20017;-80
2022/03/01 17:31:41;;;;;;;36.67;16.38;;;;;;;5.28;43.07;100856.44;12206195;19;20002;-82
2022/03/01 17:35:43;;;;;;;25.75;10.23;;;;;;;5.17;43.75;100849.53;12214020;19;20034;-81
2022/03/01 17:39:47;;;;;;;53.03;23.65;;;;;;;5.12;43.90;100851.19;12193641;19;20010;-81
2022/03/01 17:43:49;;;;;;;19.15;8.23;;;;;;;5.09;44.02;100854.28;12209180;19;20074;-81
2022/03/01 17:47:52;;;;;;;37.53;16.87;;;;;;;5.05;43.91;100856.53;12209420;19;20034;-81
2022/03/01 17:51:54;;;;;;;18.33;8.77;;;;;;;5.00;44.25;100851.63;12190928;19;20010;-80
2022/03/01 17:55:57;;;;;;;16.63;8.38;;;;;;;4.98;44.50;100856.44;12202325;19;20679;-81
2022/03/01 17:59:59;;;;;;;15.00;6.88;;;;;;;4.94;44.73;100862.47;12219730;19;20011;-81
2022/03/01 18:04:13;;;;;;;12.80;7.50;;;;;;;4.89;44.54;100868.47;12191125;19;20017;-81
2022/03/01 18:08:18;;;;;;;14.38;8.55;;;;;;;4.84;44.67;100881.00;12207588;19;20015;-81
2022/03/01 18:12:23;;;;;;;14.88;7.15;;;;;;;4.79;45.24;100876.13;12194867;19;20030;-81
2022/03/01 18:16:28;;;;;;;19.42;9.88;;;;;;;4.71;45.38;100878.91;12211739;19;20517;-81
2022/03/01 18:20:30;;;;;;;14.02;7.72;;;;;;;4.59;45.23;100875.78;12221683;19;20343;-81
2022/03/01 18:24:36;;;;;;;11.57;6.23;;;;;;;4.50;45.61;100885.06;12189261;19;20016;-81
2022/03/01 18:28:42;;;;;;;20.70;10.15;;;;;;;4.40;45.97;100890.78;12211303;19;20499;-81
2022/03/01 18:32:44;;;;;;;19.08;8.75;;;;;;;4.32;46.30;100882.66;12216932;19;20079;-80
2022/03/01 18:36:47;;;;;;;13.38;6.65;;;;;;;4.22;46.60;100873.88;12200778;19;20014;-81
2022/03/01 18:40:48;;;;;;;9.85;5.57;;;;;;;4.08;47.18;100872.78;12257292;19;20047;-81
2022/03/01 18:44:50;;;;;;;9.77;5.32;;;;;;;3.98;47.11;100875.75;12252080;19;20062;-80
2022/03/01 18:48:52;;;;;;;10.93;5.93;;;;;;;3.88;47.41;100873.25;12236257;19;20006;-80
2022/03/01 18:52:54;;;;;;;11.53;6.70;;;;;;;3.80;47.69;100864.28;12253509;19;20054;-81
2022/03/01 18:56:56;;;;;;;11.32;6.40;;;;;;;3.71;47.53;100874.38;12240154;19;20022;-81
2022/03/01 19:00:58;;;;;;;11.30;6.18;;;;;;;3.65;47.69;100872.38;12188795;19;20030;-83
2022/03/01 19:05:00;;;;;;;12.67;6.60;;;;;;;3.52;47.99;100877.56;12211459;19;20027;-82
2022/03/01 19:09:06;;;;;;;13.07;6.45;;;;;;;3.42;48.32;100875.91;12214992;19;20010;-82
2022/03/01 19:13:09;;;;;;;11.38;6.78;;;;;;;3.35;48.48;100868.59;12186173;19;20529;-81
2022/03/01 19:17:11;;;;;;;13.52;6.32;;;;;;;3.31;48.32;100878.16;12209168;19;20015;-81
2022/03/01 19:21:13;;;;;;;10.43;5.93;;;;;;;3.27;48.79;100876.78;12191765;19;20038;-81
2022/03/01 19:25:28;;;;;;;10.43;6.18;;;;;;;3.28;48.57;100878.53;12203243;19;20030;-82
2022/03/01 19:29:34;;;;;;;11.48;6.00;;;;;;;3.26;48.30;100880.56;12207892;19;20006;-80
2022/03/01 19:33:39;;;;;;;9.15;5.75;;;;;;;3.28;48.63;100876.63;12180072;19;20030;-81
2022/03/01 19:37:43;;;;;;;10.20;5.80;;;;;;;3.31;48.52;100878.16;12203661;19;20006;-82
2022/03/01 19:41:44;;;;;;;12.43;5.82;;;;;;;3.32;48.67;100875.25;12200267;19;20038;-80
2022/03/01 19:45:47;;;;;;;13.10;6.15;;;;;;;3.32;49.03;100853.44;12182470;19;20002;-81
2022/03/01 19:49:49;;;;;;;11.40;5.93;;;;;;;3.31;49.18;100850.91;12203063;19;20024;-81
2022/03/01 19:53:51;;;;;;;11.23;6.07;;;;;;;3.28;49.20;100857.56;12206289;19;20014;-82
2022/03/01 19:57:53;;;;;;;14.80;7.43;;;;;;;3.23;49.43;100850.94;12180169;19;20027;-81